sensor_id;sensor_type;location;lat;lon;timestamp;P1;durP1;ratioP1;P2;durP2;ratioP2
39102;SDS011;24847;48.218;16.414;2023-01-10T00:00:42;1.48;;;0.60;;
39102;SDS011;24847;48.218;16.414;2023-01-10T00:05:45;1.00;;;0.55;;
39102;SDS011;24847;48.218;16.414;2023-01-10T00:10:49;1.25;;;0.55;;
39102;SDS011;24847;48.218;16.414;2023-01-10T00:15:53;1.40;;;0.80;;
39102;SDS011;24847;48.218;16.414;2023-01-10T00:20:58;1.17;;;0.60;;
39102;SDS011;24847;48.218;16.414;2023-01-10T00:26:00;1.35;;;0.63;;
39102;SDS011;24847;48.218;16.414;2023-01-10T00:31:02;2.03;;;0.70;;
39102;SDS011;24847;48.218;16.414;2023-01-10T00:36:08;1.50;;;0.70;;
39102;SDS011;24847;48.218;16.414;2023-01-10T00:41:11;1.33;;;0.68;;
39102;SDS011;24847;48.218;16.414;2023-01-10T00:46:27;1.48;;;0.55;;
39102;SDS011;24847;48.218;16.414;2023-01-10T00:51:31;1.67;;;0.60;;
39102;SDS011;24847;48.218;16.414;2023-01-10T00:56:33;1.08;;;0.60;;
39102;SDS011;24847;48.218;16.414;2023-01-10T01:01:35;1.17;;;0.90;;
39102;SDS011;24847;48.218;16.414;2023-01-10T01:06:39;1.67;;;0.70;;
39102;SDS011;24847;48.218;16.414;2023-01-10T01:11:47;3.17;;;1.00;;
39102;SDS011;24847;48.218;16.414;2023-01-10T01:16:49;1.92;;;0.70;;
39102;SDS011;24847;48.218;16.414;2023-01-10T01:21:53;1.00;;;0.82;;
39102;SDS011;24847;48.218;16.414;2023-01-10T01:26:55;1.70;;;0.80;;
39102;SDS011;24847;48.218;16.414;2023-01-10T01:31:58;1.08;;;0.70;;
39102;SDS011;24847;48.218;16.414;2023-01-10T01:37:01;1.05;;;0.70;;
39102;SDS011;24847;48.218;16.414;2023-01-10T01:42:04;1.30;;;0.80;;
39102;SDS011;24847;48.218;16.414;2023-01-10T01:47:07;1.15;;;0.80;;
39102;SDS011;24847;48.218;16.414;2023-01-10T01:52:21;1.58;;;0.90;;
39102;SDS011;24847;48.218;16.414;2023-01-10T01:57:28;1.47;;;0.60;;
39102;SDS011;24847;48.218;16.414;2023-01-10T02:02:33;1.13;;;0.60;;
39102;SDS011;24847;48.218;16.414;2023-01-10T02:07:42;1.95;;;0.80;;
39102;SDS011;24847;48.218;16.414;2023-01-10T02:12:47;1.08;;;0.65;;
39102;SDS011;24847;48.218;16.414;2023-01-10T02:17:52;1.35;;;0.80;;
39102;SDS011;24847;48.218;16.414;2023-01-10T02:23:04;1.52;;;0.88;;
39102;SDS011;24847;48.218;16.414;2023-01-10T02:34:27;1.55;;;0.60;;
39102;SDS011;24847;48.218;16.414;2023-01-10T02:39:42;1.70;;;0.70;;
39102;SDS011;24847;48.218;16.414;2023-01-10T02:44:53;1.25;;;0.75;;
39102;SDS011;24847;48.218;16.414;2023-01-10T03:00:43;1.10;;;0.70;;
39102;SDS011;24847;48.218;16.414;2023-01-10T03:05:52;1.13;;;0.50;;
39102;SDS011;24847;48.218;16.414;2023-01-10T03:11:08;0.98;;;0.50;;
39102;SDS011;24847;48.218;16.414;2023-01-10T03:16:12;1.17;;;0.60;;
39102;SDS011;24847;48.218;16.414;2023-01-10T03:21:19;0.70;;;0.55;;
39102;SDS011;24847;48.218;16.414;2023-01-10T03:26:26;1.00;;;0.40;;
39102;SDS011;24847;48.218;16.414;2023-01-10T03:31:34;1.33;;;1.02;;
39102;SDS011;24847;48.218;16.414;2023-01-10T03:36:44;0.47;;;0.47;;
39102;SDS011;24847;48.218;16.414;2023-01-10T03:41:57;1.75;;;0.80;;
39102;SDS011;24847;48.218;16.414;2023-01-10T03:47:10;1.60;;;0.82;;
39102;SDS011;24847;48.218;16.414;2023-01-10T03:52:19;1.95;;;0.80;;
39102;SDS011;24847;48.218;16.414;2023-01-10T03:57:24;1.00;;;0.70;;
39102;SDS011;24847;48.218;16.414;2023-01-10T04:02:28;0.90;;;0.70;;
39102;SDS011;24847;48.218;16.414;2023-01-10T04:07:32;1.58;;;0.90;;
39102;SDS011;24847;48.218;16.414;2023-01-10T04:12:36;1.33;;;0.70;;
39102;SDS011;24847;48.218;16.414;2023-01-10T04:17:38;0.90;;;0.60;;
39102;SDS011;24847;48.218;16.414;2023-01-10T04:22:40;0.95;;;0.70;;
39102;SDS011;24847;48.218;16.414;2023-01-10T04:27:44;2.30;;;0.98;;
39102;SDS011;24847;48.218;16.414;2023-01-10T04:32:46;1.52;;;0.90;;
39102;SDS011;24847;48.218;16.414;2023-01-10T04:37:49;1.35;;;0.80;;
39102;SDS011;24847;48.218;16.414;2023-01-10T04:42:52;0.75;;;0.75;;
39102;SDS011;24847;48.218;16.414;2023-01-10T04:47:57;0.95;;;0.70;;
39102;SDS011;24847;48.218;16.414;2023-01-10T04:52:59;1.13;;;0.80;;
39102;SDS011;24847;48.218;16.414;2023-01-10T04:58:03;1.73;;;0.70;;
39102;SDS011;24847;48.218;16.414;2023-01-10T05:03:05;1.48;;;0.85;;
39102;SDS011;24847;48.218;16.414;2023-01-10T05:08:07;1.27;;;0.68;;
39102;SDS011;24847;48.218;16.414;2023-01-10T05:13:11;1.00;;;0.90;;
39102;SDS011;24847;48.218;16.414;2023-01-10T05:18:14;0.85;;;0.70;;
39102;SDS011;24847;48.218;16.414;2023-01-10T05:23:16;1.48;;;0.90;;
39102;SDS011;24847;48.218;16.414;2023-01-10T05:28:20;0.82;;;0.80;;
39102;SDS011;24847;48.218;16.414;2023-01-10T05:33:22;0.60;;;0.60;;
39102;SDS011;24847;48.218;16.414;2023-01-10T05:38:25;0.95;;;0.65;;
39102;SDS011;24847;48.218;16.414;2023-01-10T05:43:30;1.55;;;0.80;;
39102;SDS011;24847;48.218;16.414;2023-01-10T05:48:32;1.30;;;0.88;;
39102;SDS011;24847;48.218;16.414;2023-01-10T05:53:39;1.33;;;0.90;;
39102;SDS011;24847;48.218;16.414;2023-01-10T05:58:42;2.03;;;1.40;;
39102;SDS011;24847;48.218;16.414;2023-01-10T06:03:45;1.15;;;1.05;;
39102;SDS011;24847;48.218;16.414;2023-01-10T06:08:48;1.20;;;1.10;;
39102;SDS011;24847;48.218;16.414;2023-01-10T06:13:51;1.10;;;1.00;;
39102;SDS011;24847;48.218;16.414;2023-01-10T06:18:55;1.48;;;0.95;;
39102;SDS011;24847;48.218;16.414;2023-01-10T06:23:57;1.58;;;0.90;;
39102;SDS011;24847;48.218;16.414;2023-01-10T06:29:01;1.08;;;0.80;;
39102;SDS011;24847;48.218;16.414;2023-01-10T06:34:04;1.85;;;0.93;;
39102;SDS011;24847;48.218;16.414;2023-01-10T06:39:06;1.58;;;1.20;;
39102;SDS011;24847;48.218;16.414;2023-01-10T06:44:10;1.48;;;1.20;;
39102;SDS011;24847;48.218;16.414;2023-01-10T06:49:13;1.35;;;1.20;;
39102;SDS011;24847;48.218;16.414;2023-01-10T06:54:15;1.45;;;1.23;;
39102;SDS011;24847;48.218;16.414;2023-01-10T06:59:19;1.45;;;1.20;;
39102;SDS011;24847;48.218;16.414;2023-01-10T07:04:21;1.90;;;1.20;;
39102;SDS011;24847;48.218;16.414;2023-01-10T07:09:25;1.35;;;1.10;;
39102;SDS011;24847;48.218;16.414;2023-01-10T07:14:30;1.67;;;1.48;;
39102;SDS011;24847;48.218;16.414;2023-01-10T07:19:32;1.63;;;1.30;;
39102;SDS011;24847;48.218;16.414;2023-01-10T07:24:34;1.38;;;1.13;;
39102;SDS011;24847;48.218;16.414;2023-01-10T07:29:38;1.95;;;1.15;;
39102;SDS011;24847;48.218;16.414;2023-01-10T07:34:40;1.90;;;1.40;;
39102;SDS011;24847;48.218;16.414;2023-01-10T07:39:43;1.48;;;1.20;;
39102;SDS011;24847;48.218;16.414;2023-01-10T07:44:46;2.53;;;1.30;;
39102;SDS011;24847;48.218;16.414;2023-01-10T07:49:49;1.98;;;1.33;;
39102;SDS011;24847;48.218;16.414;2023-01-10T07:54:53;1.70;;;1.33;;
39102;SDS011;24847;48.218;16.414;2023-01-10T07:59:57;1.30;;;1.20;;
39102;SDS011;24847;48.218;16.414;2023-01-10T08:04:59;3.00;;;1.30;;
39102;SDS011;24847;48.218;16.414;2023-01-10T08:10:01;2.15;;;1.50;;
39102;SDS011;24847;48.218;16.414;2023-01-10T08:15:06;2.08;;;1.20;;
39102;SDS011;24847;48.218;16.414;2023-01-10T08:20:10;1.20;;;1.05;;
39102;SDS011;24847;48.218;16.414;2023-01-10T08:25:13;2.40;;;1.30;;
39102;SDS011;24847;48.218;16.414;2023-01-10T08:30:17;2.03;;;1.10;;
39102;SDS011;24847;48.218;16.414;2023-01-10T08:35:20;2.00;;;1.60;;
39102;SDS011;24847;48.218;16.414;2023-01-10T08:40:22;2.50;;;1.40;;
39102;SDS011;24847;48.218;16.414;2023-01-10T08:45:26;2.63;;;1.23;;
39102;SDS011;24847;48.218;16.414;2023-01-10T08:50:28;1.55;;;1.45;;
39102;SDS011;24847;48.218;16.414;2023-01-10T08:55:33;1.98;;;1.30;;
39102;SDS011;24847;48.218;16.414;2023-01-10T09:00:36;2.78;;;1.50;;
39102;SDS011;24847;48.218;16.414;2023-01-10T09:05:39;2.38;;;1.40;;
39102;SDS011;24847;48.218;16.414;2023-01-10T09:10:42;2.40;;;2.00;;
39102;SDS011;24847;48.218;16.414;2023-01-10T09:15:46;2.97;;;1.77;;
39102;SDS011;24847;48.218;16.414;2023-01-10T09:20:52;2.83;;;1.70;;
39102;SDS011;24847;48.218;16.414;2023-01-10T09:25:55;1.60;;;1.45;;
39102;SDS011;24847;48.218;16.414;2023-01-10T09:30:59;1.67;;;1.58;;
39102;SDS011;24847;48.218;16.414;2023-01-10T09:36:03;1.33;;;1.20;;
39102;SDS011;24847;48.218;16.414;2023-01-10T09:47:02;1.77;;;1.52;;
39102;SDS011;24847;48.218;16.414;2023-01-10T09:52:16;2.53;;;1.77;;
39102;SDS011;24847;48.218;16.414;2023-01-10T09:57:24;2.10;;;1.40;;
39102;SDS011;24847;48.218;16.414;2023-01-10T10:02:29;2.42;;;1.48;;
39102;SDS011;24847;48.218;16.414;2023-01-10T10:07:37;2.58;;;1.60;;
39102;SDS011;24847;48.218;16.414;2023-01-10T10:12:41;1.30;;;1.20;;
39102;SDS011;24847;48.218;16.414;2023-01-10T10:18:02;1.90;;;1.30;;
39102;SDS011;24847;48.218;16.414;2023-01-10T10:23:26;1.70;;;1.38;;
39102;SDS011;24847;48.218;16.414;2023-01-10T10:29:06;2.33;;;1.50;;
39102;SDS011;24847;48.218;16.414;2023-01-10T10:34:56;1.75;;;1.50;;
39102;SDS011;24847;48.218;16.414;2023-01-10T10:40:03;4.05;;;1.63;;
39102;SDS011;24847;48.218;16.414;2023-01-10T10:45:14;3.20;;;1.30;;
39102;SDS011;24847;48.218;16.414;2023-01-10T10:50:22;2.42;;;1.80;;
39102;SDS011;24847;48.218;16.414;2023-01-10T10:55:36;2.05;;;1.77;;
39102;SDS011;24847;48.218;16.414;2023-01-10T11:00:39;3.17;;;1.65;;
39102;SDS011;24847;48.218;16.414;2023-01-10T11:05:44;2.60;;;1.50;;
39102;SDS011;24847;48.218;16.414;2023-01-10T11:10:49;3.40;;;1.90;;
39102;SDS011;24847;48.218;16.414;2023-01-10T11:15:55;1.95;;;1.27;;
39102;SDS011;24847;48.218;16.414;2023-01-10T11:20:59;3.17;;;1.70;;
39102;SDS011;24847;48.218;16.414;2023-01-10T11:26:06;2.40;;;1.30;;
39102;SDS011;24847;48.218;16.414;2023-01-10T11:31:25;3.00;;;1.60;;
39102;SDS011;24847;48.218;16.414;2023-01-10T11:36:30;1.63;;;1.15;;
39102;SDS011;24847;48.218;16.414;2023-01-10T11:41:54;2.90;;;1.23;;
39102;SDS011;24847;48.218;16.414;2023-01-10T11:47:00;2.92;;;1.90;;
39102;SDS011;24847;48.218;16.414;2023-01-10T11:52:13;2.03;;;1.50;;
39102;SDS011;24847;48.218;16.414;2023-01-10T11:57:21;2.42;;;1.50;;
39102;SDS011;24847;48.218;16.414;2023-01-10T12:02:26;1.58;;;1.40;;
39102;SDS011;24847;48.218;16.414;2023-01-10T12:13:07;1.70;;;1.20;;
39102;SDS011;24847;48.218;16.414;2023-01-10T12:23:21;2.05;;;1.10;;
39102;SDS011;24847;48.218;16.414;2023-01-10T12:28:26;2.08;;;1.05;;
39102;SDS011;24847;48.218;16.414;2023-01-10T12:33:32;0.80;;;0.80;;
39102;SDS011;24847;48.218;16.414;2023-01-10T12:38:39;1.58;;;1.10;;
39102;SDS011;24847;48.218;16.414;2023-01-10T12:44:10;0.95;;;0.70;;
39102;SDS011;24847;48.218;16.414;2023-01-10T12:49:17;5.93;;;1.60;;
39102;SDS011;24847;48.218;16.414;2023-01-10T12:54:27;1.55;;;1.08;;
39102;SDS011;24847;48.218;16.414;2023-01-10T12:59:31;1.92;;;1.48;;
39102;SDS011;24847;48.218;16.414;2023-01-10T13:04:39;1.65;;;1.20;;
39102;SDS011;24847;48.218;16.414;2023-01-10T13:09:52;1.25;;;0.90;;
39102;SDS011;24847;48.218;16.414;2023-01-10T13:14:56;1.00;;;0.90;;
39102;SDS011;24847;48.218;16.414;2023-01-10T13:25:42;1.63;;;1.20;;
39102;SDS011;24847;48.218;16.414;2023-01-10T13:30:57;1.33;;;0.90;;
39102;SDS011;24847;48.218;16.414;2023-01-10T13:36:08;2.28;;;0.90;;
39102;SDS011;24847;48.218;16.414;2023-01-10T13:41:19;1.52;;;1.10;;
39102;SDS011;24847;48.218;16.414;2023-01-10T13:46:40;3.53;;;0.90;;
39102;SDS011;24847;48.218;16.414;2023-01-10T13:57:49;0.95;;;0.90;;
39102;SDS011;24847;48.218;16.414;2023-01-10T14:02:54;2.37;;;1.00;;
39102;SDS011;24847;48.218;16.414;2023-01-10T14:07:56;1.73;;;1.10;;
39102;SDS011;24847;48.218;16.414;2023-01-10T14:13:01;2.08;;;1.00;;
39102;SDS011;24847;48.218;16.414;2023-01-10T14:18:15;1.00;;;0.80;;
39102;SDS011;24847;48.218;16.414;2023-01-10T14:23:21;1.45;;;1.00;;
39102;SDS011;24847;48.218;16.414;2023-01-10T14:28:32;1.63;;;0.88;;
39102;SDS011;24847;48.218;16.414;2023-01-10T14:33:35;1.20;;;0.95;;
39102;SDS011;24847;48.218;16.414;2023-01-10T14:38:38;0.88;;;0.70;;
39102;SDS011;24847;48.218;16.414;2023-01-10T14:43:43;1.25;;;0.82;;
39102;SDS011;24847;48.218;16.414;2023-01-10T14:48:52;1.63;;;0.90;;
39102;SDS011;24847;48.218;16.414;2023-01-10T14:54:00;1.75;;;0.73;;
39102;SDS011;24847;48.218;16.414;2023-01-10T15:04:24;1.35;;;0.90;;
39102;SDS011;24847;48.218;16.414;2023-01-10T15:09:29;1.25;;;1.00;;
39102;SDS011;24847;48.218;16.414;2023-01-10T15:14:33;0.98;;;0.73;;
39102;SDS011;24847;48.218;16.414;2023-01-10T15:19:41;1.15;;;0.82;;
39102;SDS011;24847;48.218;16.414;2023-01-10T15:24:55;2.20;;;0.80;;
39102;SDS011;24847;48.218;16.414;2023-01-10T15:30:03;1.10;;;0.90;;
39102;SDS011;24847;48.218;16.414;2023-01-10T15:40:19;1.45;;;0.80;;
39102;SDS011;24847;48.218;16.414;2023-01-10T15:45:27;1.60;;;0.65;;
39102;SDS011;24847;48.218;16.414;2023-01-10T15:50:37;1.88;;;0.75;;
39102;SDS011;24847;48.218;16.414;2023-01-10T15:55:54;1.30;;;0.80;;
39102;SDS011;24847;48.218;16.414;2023-01-10T16:01:12;0.93;;;0.82;;
39102;SDS011;24847;48.218;16.414;2023-01-10T16:06:20;2.15;;;0.98;;
39102;SDS011;24847;48.218;16.414;2023-01-10T16:16:54;0.95;;;0.63;;
39102;SDS011;24847;48.218;16.414;2023-01-10T16:21:57;1.35;;;1.00;;
39102;SDS011;24847;48.218;16.414;2023-01-10T16:27:01;1.95;;;0.80;;
39102;SDS011;24847;48.218;16.414;2023-01-10T16:32:11;1.77;;;0.80;;
39102;SDS011;24847;48.218;16.414;2023-01-10T16:37:17;1.42;;;0.90;;
39102;SDS011;24847;48.218;16.414;2023-01-10T16:42:19;1.08;;;0.80;;
39102;SDS011;24847;48.218;16.414;2023-01-10T16:47:40;0.90;;;0.70;;
39102;SDS011;24847;48.218;16.414;2023-01-10T16:52:43;1.75;;;0.85;;
39102;SDS011;24847;48.218;16.414;2023-01-10T16:57:45;1.77;;;1.00;;
39102;SDS011;24847;48.218;16.414;2023-01-10T17:02:49;1.35;;;0.82;;
39102;SDS011;24847;48.218;16.414;2023-01-10T17:07:52;1.92;;;0.90;;
39102;SDS011;24847;48.218;16.414;2023-01-10T17:12:54;2.15;;;1.17;;
39102;SDS011;24847;48.218;16.414;2023-01-10T17:17:58;2.72;;;1.17;;
39102;SDS011;24847;48.218;16.414;2023-01-10T17:23:00;1.20;;;0.90;;
39102;SDS011;24847;48.218;16.414;2023-01-10T17:28:02;1.20;;;0.95;;
39102;SDS011;24847;48.218;16.414;2023-01-10T17:33:06;1.02;;;0.80;;
39102;SDS011;24847;48.218;16.414;2023-01-10T17:38:11;1.88;;;0.93;;
39102;SDS011;24847;48.218;16.414;2023-01-10T17:43:17;1.38;;;0.88;;
39102;SDS011;24847;48.218;16.414;2023-01-10T17:48:22;1.33;;;0.70;;
39102;SDS011;24847;48.218;16.414;2023-01-10T17:53:25;2.00;;;1.00;;
39102;SDS011;24847;48.218;16.414;2023-01-10T17:58:28;1.63;;;1.10;;
39102;SDS011;24847;48.218;16.414;2023-01-10T18:03:32;2.50;;;1.20;;
39102;SDS011;24847;48.218;16.414;2023-01-10T18:08:35;2.83;;;1.42;;
39102;SDS011;24847;48.218;16.414;2023-01-10T18:13:37;2.35;;;1.10;;
39102;SDS011;24847;48.218;16.414;2023-01-10T18:18:41;1.77;;;0.90;;
39102;SDS011;24847;48.218;16.414;2023-01-10T18:23:44;1.33;;;1.02;;
39102;SDS011;24847;48.218;16.414;2023-01-10T18:28:49;1.05;;;0.80;;
39102;SDS011;24847;48.218;16.414;2023-01-10T18:33:53;2.10;;;1.10;;
39102;SDS011;24847;48.218;16.414;2023-01-10T18:38:56;1.92;;;1.10;;
39102;SDS011;24847;48.218;16.414;2023-01-10T18:43:59;2.47;;;1.23;;
39102;SDS011;24847;48.218;16.414;2023-01-10T18:49:03;2.40;;;1.10;;
39102;SDS011;24847;48.218;16.414;2023-01-10T18:54:06;2.03;;;1.20;;
39102;SDS011;24847;48.218;16.414;2023-01-10T18:59:09;1.98;;;1.27;;
39102;SDS011;24847;48.218;16.414;2023-01-10T19:04:17;1.75;;;1.10;;
39102;SDS011;24847;48.218;16.414;2023-01-10T19:09:20;2.63;;;1.40;;
39102;SDS011;24847;48.218;16.414;2023-01-10T19:14:23;2.28;;;0.95;;
39102;SDS011;24847;48.218;16.414;2023-01-10T19:19:27;3.80;;;1.30;;
39102;SDS011;24847;48.218;16.414;2023-01-10T19:24:31;2.70;;;1.05;;
39102;SDS011;24847;48.218;16.414;2023-01-10T19:29:37;2.20;;;1.00;;
39102;SDS011;24847;48.218;16.414;2023-01-10T19:34:41;2.05;;;0.98;;
39102;SDS011;24847;48.218;16.414;2023-01-10T19:39:44;2.45;;;1.10;;
39102;SDS011;24847;48.218;16.414;2023-01-10T19:44:48;2.47;;;1.20;;
39102;SDS011;24847;48.218;16.414;2023-01-10T19:49:52;2.28;;;1.20;;
39102;SDS011;24847;48.218;16.414;2023-01-10T19:54:55;3.28;;;1.50;;
39102;SDS011;24847;48.218;16.414;2023-01-10T19:59:58;2.45;;;1.33;;
39102;SDS011;24847;48.218;16.414;2023-01-10T20:05:02;2.55;;;1.20;;
39102;SDS011;24847;48.218;16.414;2023-01-10T20:10:06;2.05;;;1.20;;
39102;SDS011;24847;48.218;16.414;2023-01-10T20:15:12;2.47;;;1.30;;
39102;SDS011;24847;48.218;16.414;2023-01-10T20:20:20;2.22;;;1.30;;
39102;SDS011;24847;48.218;16.414;2023-01-10T20:25:23;1.85;;;1.15;;
39102;SDS011;24847;48.218;16.414;2023-01-10T20:30:27;1.92;;;1.02;;
39102;SDS011;24847;48.218;16.414;2023-01-10T20:35:31;2.35;;;1.23;;
39102;SDS011;24847;48.218;16.414;2023-01-10T20:40:38;2.75;;;1.30;;
39102;SDS011;24847;48.218;16.414;2023-01-10T20:45:41;2.17;;;1.35;;
39102;SDS011;24847;48.218;16.414;2023-01-10T20:50:45;1.65;;;1.10;;
39102;SDS011;24847;48.218;16.414;2023-01-10T20:55:48;1.73;;;1.08;;
39102;SDS011;24847;48.218;16.414;2023-01-10T21:00:51;1.50;;;1.00;;
39102;SDS011;24847;48.218;16.414;2023-01-10T21:05:56;2.47;;;1.20;;
39102;SDS011;24847;48.218;16.414;2023-01-10T21:10:59;2.42;;;1.00;;
39102;SDS011;24847;48.218;16.414;2023-01-10T21:16:02;1.85;;;1.13;;
39102;SDS011;24847;48.218;16.414;2023-01-10T21:21:07;4.63;;;1.17;;
39102;SDS011;24847;48.218;16.414;2023-01-10T21:26:11;2.08;;;1.13;;
39102;SDS011;24847;48.218;16.414;2023-01-10T21:31:17;3.30;;;1.40;;
39102;SDS011;24847;48.218;16.414;2023-01-10T21:36:22;2.47;;;0.90;;
39102;SDS011;24847;48.218;16.414;2023-01-10T21:41:24;1.48;;;0.90;;
39102;SDS011;24847;48.218;16.414;2023-01-10T21:46:44;0.90;;;0.70;;
39102;SDS011;24847;48.218;16.414;2023-01-10T21:51:49;2.03;;;1.20;;
39102;SDS011;24847;48.218;16.414;2023-01-10T21:56:51;2.55;;;1.20;;
39102;SDS011;24847;48.218;16.414;2023-01-10T22:01:54;2.88;;;1.20;;
39102;SDS011;24847;48.218;16.414;2023-01-10T22:06:59;1.98;;;1.05;;
39102;SDS011;24847;48.218;16.414;2023-01-10T22:12:01;1.95;;;0.85;;
39102;SDS011;24847;48.218;16.414;2023-01-10T22:17:04;2.70;;;1.42;;
39102;SDS011;24847;48.218;16.414;2023-01-10T22:22:08;3.10;;;1.35;;
39102;SDS011;24847;48.218;16.414;2023-01-10T22:27:11;2.92;;;1.33;;
39102;SDS011;24847;48.218;16.414;2023-01-10T22:32:14;1.60;;;1.05;;
39102;SDS011;24847;48.218;16.414;2023-01-10T22:37:18;2.88;;;1.40;;
39102;SDS011;24847;48.218;16.414;2023-01-10T22:42:20;3.30;;;1.13;;
39102;SDS011;24847;48.218;16.414;2023-01-10T22:47:22;1.70;;;0.95;;
39102;SDS011;24847;48.218;16.414;2023-01-10T22:52:26;2.03;;;1.30;;
39102;SDS011;24847;48.218;16.414;2023-01-10T22:57:29;1.40;;;1.20;;
39102;SDS011;24847;48.218;16.414;2023-01-10T23:02:31;2.03;;;1.13;;
39102;SDS011;24847;48.218;16.414;2023-01-10T23:07:36;1.55;;;1.00;;
39102;SDS011;24847;48.218;16.414;2023-01-10T23:12:39;2.88;;;0.82;;
39102;SDS011;24847;48.218;16.414;2023-01-10T23:17:41;2.55;;;1.00;;
39102;SDS011;24847;48.218;16.414;2023-01-10T23:22:45;1.80;;;0.95;;
39102;SDS011;24847;48.218;16.414;2023-01-10T23:27:47;2.35;;;0.80;;
39102;SDS011;24847;48.218;16.414;2023-01-10T23:32:49;1.45;;;0.90;;
39102;SDS011;24847;48.218;16.414;2023-01-10T23:37:53;1.98;;;0.85;;
39102;SDS011;24847;48.218;16.414;2023-01-10T23:42:55;3.05;;;1.00;;
39102;SDS011;24847;48.218;16.414;2023-01-10T23:47:58;2.88;;;0.82;;
39102;SDS011;24847;48.218;16.414;2023-01-10T23:53:01;3.17;;;1.00;;
39102;SDS011;24847;48.218;16.414;2023-01-10T23:58:04;1.50;;;1.00;;
